Time;durP1;ratioP1;P1;durP2;ratioP2;P2;SDS_P1;SDS_P2;PMS_P1;PMS_P2;Temp;Humidity;BMP_temperature;BMP_pressure;BME280_temperature;BME280_humidity;BME280_pressure;Samples;Min_cycle;Max_cycle;Signal;HPM_P1;HPM_P2
2021/07/20 00:00:16;;;;;;;42.87;39.70;;;20.00;76.40;;;;;;5047892;28;20568;-69
2021/07/20 00:02:44;;;;;;;44.30;40.40;;;19.70;77.00;;;;;;5060475;28;20457;-70
2021/07/20 00:05:15;;;;;;;43.07;39.67;;;19.60;77.60;;;;;;5047128;28;20999;-70
2021/07/20 00:07:43;;;;;;;42.80;39.47;;;19.50;78.00;;;;;;5054882;28;20459;-70
2021/07/20 00:10:12;;;;;;;43.90;40.33;;;19.40;78.60;;;;;;5057346;28;20476;-70
2021/07/20 00:12:39;;;;;;;44.73;40.67;;;19.50;78.10;;;;;;5051561;28;20479;-70
2021/07/20 00:15:09;;;;;;;40.73;37.70;;;19.60;78.00;;;;;;5052334;28;20483;-70
2021/07/20 00:17:39;;;;;;;43.47;39.67;;;19.60;78.00;;;;;;5050398;28;20542;-70
2021/07/20 00:20:08;;;;;;;44.10;40.57;;;19.40;78.50;;;;;;5049047;28;20965;-69
2021/07/20 00:22:34;;;;;;;44.47;40.87;;;19.60;78.40;;;;;;5049397;28;20454;-69
2021/07/20 00:25:01;;;;;;;44.10;40.60;;;19.50;78.40;;;;;;5038049;28;20473;-70
2021/07/20 00:27:28;;;;;;;44.10;40.40;;;19.60;78.30;;;;;;5048598;28;20469;-70
2021/07/20 00:29:56;;;;;;;45.83;42.13;;;19.50;78.30;;;;;;5057360;28;20466;-70
2021/07/20 00:32:23;;;;;;;42.77;39.40;;;19.40;78.60;;;;;;5047511;28;20478;-70
2021/07/20 00:34:51;;;;;;;43.07;39.43;;;19.30;79.00;;;;;;5048559;28;20460;-71
2021/07/20 00:37:18;;;;;;;43.63;40.20;;;19.30;79.30;;;;;;5050508;28;20464;-70
2021/07/20 00:39:45;;;;;;;42.60;38.97;;;19.20;79.50;;;;;;5049845;28;20461;-70
2021/07/20 00:42:13;;;;;;;43.40;39.90;;;19.10;79.80;;;;;;5051114;28;20444;-70
2021/07/20 00:44:40;;;;;;;42.60;39.20;;;19.20;79.60;;;;;;5050828;28;21223;-70
2021/07/20 00:47:07;;;;;;;42.67;39.20;;;19.20;79.40;;;;;;5049550;28;20992;-70
2021/07/20 00:49:34;;;;;;;43.20;39.80;;;19.30;79.30;;;;;;5046000;28;20465;-70
2021/07/20 00:52:02;;;;;;;43.07;39.77;;;19.20;79.10;;;;;;5048465;28;21110;-70
2021/07/20 00:54:29;;;;;;;45.80;40.97;;;19.10;79.70;;;;;;5048941;28;20459;-70
2021/07/20 00:56:56;;;;;;;44.30;40.80;;;19.10;79.70;;;;;;5049084;28;20484;-70
2021/07/20 00:59:23;;;;;;;43.33;39.93;;;19.00;79.90;;;;;;5048148;28;20473;-70
2021/07/20 01:01:50;;;;;;;43.37;39.70;;;19.00;79.90;;;;;;5058112;28;20812;-70
2021/07/20 01:04:17;;;;;;;42.27;38.77;;;19.00;80.00;;;;;;5046149;28;21131;-70
2021/07/20 01:06:47;;;;;;;43.00;39.30;;;18.90;80.30;;;;;;5050544;28;20572;-69
2021/07/20 01:09:16;;;;;;;44.20;40.30;;;19.00;79.60;;;;;;5042582;28;20460;-70
2021/07/20 01:11:43;;;;;;;42.00;38.50;;;19.10;79.50;;;;;;5052769;28;20466;-70
2021/07/20 01:14:11;;;;;;;43.87;40.33;;;19.30;79.00;;;;;;5049550;28;20474;-70
2021/07/20 01:16:39;;;;;;;41.97;38.63;;;19.00;79.80;;;;;;5045484;28;20497;-69
2021/07/20 01:19:07;;;;;;;41.80;38.50;;;18.90;80.10;;;;;;5047155;28;20451;-69
2021/07/20 01:21:38;;;;;;;41.47;38.27;;;18.80;80.50;;;;;;5055276;28;20461;-70
2021/07/20 01:24:08;;;;;;;41.60;38.30;;;18.80;80.20;;;;;;5050890;28;20482;-69
2021/07/20 01:26:35;;;;;;;43.37;39.77;;;18.90;80.20;;;;;;5050808;28;20482;-70
2021/07/20 01:29:04;;;;;;;41.50;37.93;;;18.90;80.00;;;;;;5047698;28;20473;-70
2021/07/20 01:31:33;;;;;;;41.30;37.87;;;18.90;80.00;;;;;;5048497;28;20451;-70
2021/07/20 01:34:01;;;;;;;42.30;38.80;;;18.90;80.00;;;;;;5044554;28;20451;-70
2021/07/20 01:36:31;;;;;;;40.93;37.73;;;18.90;79.80;;;;;;5046515;28;20479;-70
2021/07/20 01:39:00;;;;;;;41.00;37.60;;;18.80;80.30;;;;;;5038363;28;20466;-70
2021/07/20 01:41:29;;;;;;;39.73;36.63;;;18.70;80.50;;;;;;5046859;28;20470;-69
2021/07/20 01:43:59;;;;;;;40.80;37.50;;;18.60;80.70;;;;;;5050987;28;20840;-70
2021/07/20 01:46:27;;;;;;;40.20;37.00;;;18.50;80.90;;;;;;5051327;28;20482;-70
2021/07/20 01:48:56;;;;;;;40.67;37.47;;;18.40;81.20;;;;;;5049946;28;20470;-70
2021/07/20 01:51:24;;;;;;;41.73;38.33;;;18.60;80.90;;;;;;5050161;28;20459;-69
2021/07/20 01:53:52;;;;;;;42.23;38.60;;;18.50;80.70;;;;;;5050984;28;20483;-70
2021/07/20 01:56:20;;;;;;;40.97;37.63;;;18.50;80.70;;;;;;5053037;28;20578;-70
2021/07/20 01:58:48;;;;;;;41.30;38.10;;;18.60;80.60;;;;;;5040745;28;20455;-70
2021/07/20 02:01:19;;;;;;;41.20;37.67;;;18.60;80.50;;;;;;5061149;28;20827;-70
2021/07/20 02:04:15;;;;;;;40.33;37.23;;;18.60;80.60;;;;;;5046379;28;20543;-70
2021/07/20 02:09:32;;;;;;;40.67;37.07;;;18.50;80.90;;;;;;5053710;28;20957;-70
2021/07/20 02:12:08;;;;;;;41.93;38.30;;;18.50;81.00;;;;;;5057141;28;20458;-70
2021/07/20 02:14:41;;;;;;;42.73;38.93;;;18.50;81.00;;;;;;5045698;28;20956;-70
2021/07/20 02:17:10;;;;;;;40.73;37.63;;;18.50;81.00;;;;;;5049729;28;20455;-70
2021/07/20 02:19:41;;;;;;;42.10;38.40;;;18.50;80.90;;;;;;5041407;28;20458;-70
2021/07/20 02:22:09;;;;;;;41.73;38.33;;;18.50;81.10;;;;;;5039309;28;20451;-70
2021/07/20 02:24:38;;;;;;;40.87;37.70;;;18.40;81.10;;;;;;5046567;28;20461;-69
2021/07/20 02:27:07;;;;;;;41.60;38.10;;;18.40;81.50;;;;;;5049147;28;20996;-70
2021/07/20 02:29:36;;;;;;;40.90;37.70;;;18.40;81.30;;;;;;5045304;28;20487;-70
2021/07/20 02:32:05;;;;;;;40.70;37.40;;;18.30;81.50;;;;;;5048526;28;20457;-70
2021/07/20 02:34:36;;;;;;;41.07;37.37;;;18.30;81.70;;;;;;5043059;28;20456;-70
2021/07/20 02:37:04;;;;;;;40.40;37.10;;;18.20;82.20;;;;;;5065986;28;20569;-70
2021/07/20 02:39:32;;;;;;;41.60;38.20;;;18.10;82.40;;;;;;5051121;28;20456;-70
2021/07/20 02:42:00;;;;;;;41.33;38.10;;;18.10;82.60;;;;;;5049282;28;20582;-70
2021/07/20 02:44:28;;;;;;;41.13;38.03;;;17.90;83.00;;;;;;5048186;28;20471;-70
2021/07/20 02:46:58;;;;;;;40.03;36.73;;;17.80;83.10;;;;;;5048085;28;20992;-70
2021/07/20 02:49:26;;;;;;;41.57;38.20;;;17.80;83.60;;;;;;5043285;28;20462;-69
2021/07/20 02:51:53;;;;;;;41.90;38.70;;;17.80;83.60;;;;;;5051148;28;20880;-70
2021/07/20 02:54:24;;;;;;;40.90;37.60;;;17.80;83.40;;;;;;5052250;28;20467;-69
2021/07/20 02:56:52;;;;;;;39.93;36.80;;;17.80;83.00;;;;;;5051557;28;20988;-69
2021/07/20 02:59:28;;;;;;;42.57;39.07;;;17.90;83.00;;;;;;5038675;28;21065;-69
2021/07/20 03:02:00;;;;;;;42.80;39.10;;;17.90;82.50;;;;;;5057942;28;20461;-69
2021/07/20 03:04:27;;;;;;;40.20;36.80;;;17.90;82.80;;;;;;5044977;28;20988;-70
2021/07/20 03:06:57;;;;;;;41.80;37.93;;;17.80;83.00;;;;;;5066547;28;20477;-69
2021/07/20 03:09:25;;;;;;;42.10;38.50;;;17.80;83.00;;;;;;5044888;28;20467;-70
2021/07/20 03:11:57;;;;;;;40.33;36.93;;;17.70;83.30;;;;;;5045044;28;20463;-70
2021/07/20 03:14:26;;;;;;;40.23;37.03;;;17.60;83.60;;;;;;5047812;28;20483;-70
2021/07/20 03:16:57;;;;;;;39.70;36.63;;;17.40;84.10;;;;;;5051116;28;20503;-70
2021/07/20 03:19:27;;;;;;;40.40;37.20;;;17.30;84.60;;;;;;5035712;28;20898;-69
2021/07/20 03:21:55;;;;;;;41.07;37.50;;;17.20;84.90;;;;;;5049964;28;20494;-70
2021/07/20 03:24:23;;;;;;;39.03;35.73;;;17.30;84.50;;;;;;5048071;28;20929;-70
2021/07/20 03:26:53;;;;;;;42.67;39.30;;;17.30;84.70;;;;;;5046457;28;20483;-70
2021/07/20 03:29:22;;;;;;;40.87;37.50;;;17.30;84.70;;;;;;5049459;28;20456;-70
2021/07/20 03:31:50;;;;;;;39.17;35.93;;;17.40;84.20;;;;;;5039629;28;20534;-70
2021/07/20 03:34:20;;;;;;;40.60;37.07;;;17.40;83.70;;;;;;5049827;28;20482;-70
2021/07/20 03:36:48;;;;;;;39.23;36.23;;;17.50;83.50;;;;;;5050971;28;20482;-70
2021/07/20 03:39:15;;;;;;;42.83;39.60;;;17.60;83.20;;;;;;5049417;28;21113;-70
2021/07/20 03:41:44;;;;;;;39.27;36.20;;;17.60;83.30;;;;;;5047741;28;20466;-69
2021/07/20 03:44:11;;;;;;;42.60;39.30;;;17.60;83.80;;;;;;5046776;28;20489;-70
2021/07/20 03:46:40;;;;;;;40.73;37.57;;;17.50;84.10;;;;;;5045092;28;20474;-70
2021/07/20 03:49:08;;;;;;;41.13;37.80;;;17.50;84.20;;;;;;5051360;28;20460;-69
2021/07/20 03:51:36;;;;;;;42.07;38.63;;;17.50;84.20;;;;;;5052368;28;20489;-70
2021/07/20 03:54:04;;;;;;;40.83;37.50;;;17.60;84.20;;;;;;5045189;28;20479;-70
2021/07/20 03:56:34;;;;;;;43.73;40.53;;;17.60;84.30;;;;;;5052846;28;20472;-70
2021/07/20 03:59:06;;;;;;;42.67;39.33;;;17.50;84.40;;;;;;5037371;28;20849;-70
2021/07/20 04:01:35;;;;;;;39.97;36.63;;;17.50;84.30;;;;;;5054007;28;20459;-70
2021/07/20 04:04:03;;;;;;;43.67;39.93;;;17.60;84.30;;;;;;5053434;28;20449;-70
2021/07/20 04:06:33;;;;;;;42.30;38.40;;;17.60;84.20;;;;;;5059393;28;20478;-70
2021/07/20 04:09:02;;;;;;;41.27;38.07;;;17.70;84.10;;;;;;5041445;28;20473;-70
2021/07/20 04:11:30;;;;;;;39.13;36.13;;;17.70;83.80;;;;;;5057470;28;21111;-70
2021/07/20 04:13:57;;;;;;;41.03;37.43;;;17.70;83.80;;;;;;5042474;28;20478;-69
2021/07/20 04:16:26;;;;;;;43.77;40.37;;;17.80;83.60;;;;;;5048918;28;20501;-70
2021/07/20 04:18:53;;;;;;;42.03;38.43;;;17.80;83.40;;;;;;5042625;28;20466;-70
2021/07/20 04:21:21;;;;;;;43.10;39.67;;;17.80;82.90;;;;;;5052122;28;20459;-70
2021/07/20 04:23:50;;;;;;;42.87;39.47;;;17.90;82.70;;;;;;5048799;28;20487;-70
2021/07/20 04:26:19;;;;;;;42.10;38.40;;;17.90;82.60;;;;;;5048448;28;20552;-70
2021/07/20 04:28:46;;;;;;;40.63;37.20;;;17.80;82.00;;;;;;5038215;28;20455;-70
2021/07/20 04:31:16;;;;;;;43.07;39.57;;;17.80;82.10;;;;;;5045907;28;20553;-70
2021/07/20 04:33:46;;;;;;;39.47;35.83;;;17.80;81.70;;;;;;5046923;28;20479;-69
2021/07/20 04:36:15;;;;;;;40.77;37.20;;;17.80;81.70;;;;;;5044413;28;21166;-70
2021/07/20 04:38:43;;;;;;;39.47;36.17;;;17.90;81.30;;;;;;5050062;28;20484;-71
2021/07/20 04:41:10;;;;;;;38.10;35.03;;;18.00;81.10;;;;;;5043571;28;20480;-70
2021/07/20 04:43:38;;;;;;;42.07;39.07;;;17.90;80.90;;;;;;5038232;28;20455;-71
2021/07/20 04:46:08;;;;;;;40.37;36.80;;;17.80;81.50;;;;;;5046647;28;20518;-72
2021/07/20 04:48:35;;;;;;;38.83;35.93;;;17.50;82.10;;;;;;5048200;28;20466;-70
2021/07/20 04:51:03;;;;;;;40.07;36.83;;;17.50;82.80;;;;;;5038656;28;20459;-69
2021/07/20 04:53:30;;;;;;;38.97;35.53;;;17.40;82.70;;;;;;5043158;28;20478;-69
2021/07/20 04:55:57;;;;;;;39.70;36.70;;;17.50;82.80;;;;;;5044134;28;20514;-70
2021/07/20 04:58:24;;;;;;;38.37;35.37;;;17.70;82.10;;;;;;5046078;28;20544;-70
2021/07/20 05:00:54;;;;;;;41.50;38.37;;;17.80;81.50;;;;;;5051927;28;20849;-71
2021/07/20 05:03:24;;;;;;;39.50;36.30;;;17.80;81.50;;;;;;5045402;28;20933;-71
2021/07/20 05:05:53;;;;;;;37.23;34.33;;;17.90;81.00;;;;;;5042626;28;20490;-71
2021/07/20 05:08:21;;;;;;;37.63;34.63;;;17.80;80.70;;;;;;5047867;28;20459;-69
2021/07/20 05:10:50;;;;;;;39.90;37.00;;;17.60;81.80;;;;;;5047466;28;20465;-74
2021/07/20 05:13:18;;;;;;;41.80;38.30;;;17.80;81.50;;;;;;5047746;28;20480;-71
2021/07/20 05:15:52;;;;;;;38.53;35.60;;;18.00;81.00;;;;;;5047054;28;20477;-71
2021/07/20 05:18:20;;;;;;;40.57;37.27;;;18.30;79.50;;;;;;5034592;28;21232;-71
2021/07/20 05:20:50;;;;;;;38.50;35.90;;;18.30;78.90;;;;;;5045039;28;20545;-71
2021/07/20 05:23:19;;;;;;;41.50;38.53;;;18.40;78.80;;;;;;5041984;28;20467;-71
2021/07/20 05:25:49;;;;;;;39.33;36.37;;;18.20;79.40;;;;;;5047907;28;20487;-74
2021/07/20 05:28:18;;;;;;;39.60;36.40;;;18.00;80.10;;;;;;5047845;28;20577;-72
2021/07/20 05:30:45;;;;;;;40.27;36.97;;;18.00;80.00;;;;;;5047989;28;20886;-71
2021/07/20 05:33:14;;;;;;;39.93;36.63;;;18.10;80.00;;;;;;5050070;28;20475;-71
2021/07/20 05:35:41;;;;;;;40.33;37.37;;;18.40;79.10;;;;;;5046918;28;20486;-73
2021/07/20 05:38:10;;;;;;;40.47;37.37;;;18.50;78.80;;;;;;5042125;28;20982;-72
2021/07/20 05:40:37;;;;;;;39.07;35.87;;;18.70;77.90;;;;;;5043841;28;20469;-71
2021/07/20 05:43:05;;;;;;;40.83;37.73;;;18.90;77.30;;;;;;5041971;28;20458;-71
2021/07/20 05:45:32;;;;;;;42.00;38.90;;;18.80;77.10;;;;;;5043237;28;20561;-70
2021/07/20 05:48:00;;;;;;;42.67;39.17;;;18.40;78.00;;;;;;5040968;28;20984;-71
2021/07/20 05:50:29;;;;;;;40.47;37.47;;;18.50;78.20;;;;;;5037071;28;21010;-71
2021/07/20 05:52:59;;;;;;;39.20;36.33;;;18.70;77.80;;;;;;5044450;28;20489;-71
2021/07/20 05:55:27;;;;;;;40.60;37.40;;;18.80;77.00;;;;;;5044775;28;20474;-71
2021/07/20 05:57:54;;;;;;;37.90;35.20;;;18.80;77.40;;;;;;5039793;28;20462;-71
2021/07/20 06:00:24;;;;;;;42.67;39.60;;;18.90;77.10;;;;;;5045278;28;20471;-71
2021/07/20 06:02:51;;;;;;;37.90;35.13;;;19.00;77.00;;;;;;5038021;28;20534;-71
2021/07/20 06:05:20;;;;;;;41.00;38.00;;;19.10;76.60;;;;;;5044502;28;20562;-71
2021/07/20 06:07:49;;;;;;;37.47;34.67;;;18.90;76.60;;;;;;5039014;28;20470;-72
2021/07/20 06:10:19;;;;;;;42.90;39.67;;;18.90;76.80;;;;;;5044211;28;20459;-72
2021/07/20 06:12:50;;;;;;;39.03;35.93;;;18.90;77.00;;;;;;5047910;28;20521;-72
2021/07/20 06:15:18;;;;;;;41.23;37.67;;;18.90;76.50;;;;;;5043385;28;20851;-71
2021/07/20 06:17:46;;;;;;;41.87;38.40;;;18.80;76.90;;;;;;5046268;28;20546;-73
2021/07/20 06:20:15;;;;;;;38.93;35.67;;;18.80;77.30;;;;;;5041868;28;20542;-72
2021/07/20 06:22:48;;;;;;;38.67;35.73;;;19.00;76.80;;;;;;5042820;28;21468;-74
2021/07/20 06:25:17;;;;;;;37.80;35.07;;;19.00;76.50;;;;;;5043534;28;20988;-72
2021/07/20 06:27:46;;;;;;;37.30;34.70;;;19.00;76.40;;;;;;5042157;28;20939;-71
2021/07/20 06:30:15;;;;;;;40.47;37.47;;;18.90;77.00;;;;;;5047482;28;20549;-71
2021/07/20 06:32:44;;;;;;;41.20;37.77;;;19.10;76.60;;;;;;5037733;28;20458;-72
2021/07/20 06:35:15;;;;;;;39.20;35.63;;;19.30;75.60;;;;;;5048161;28;20478;-71
2021/07/20 06:37:45;;;;;;;39.03;36.13;;;19.20;75.70;;;;;;5047695;28;20459;-72
2021/07/20 06:40:17;;;;;;;38.30;35.30;;;19.30;76.10;;;;;;5046076;28;20983;-71
2021/07/20 06:42:45;;;;;;;39.00;35.50;;;19.40;75.10;;;;;;5050535;28;20937;-71
2021/07/20 06:45:14;;;;;;;39.70;36.00;;;19.30;75.50;;;;;;5046977;28;21219;-70
2021/07/20 06:47:42;;;;;;;42.50;39.03;;;19.30;75.90;;;;;;5049900;28;20451;-71
2021/07/20 06:50:11;;;;;;;38.20;35.27;;;19.30;75.70;;;;;;5047064;28;20821;-70
2021/07/20 06:52:38;;;;;;;40.80;37.60;;;19.30;75.90;;;;;;5049903;28;20572;-70
2021/07/20 06:55:07;;;;;;;39.83;36.60;;;19.40;75.70;;;;;;5043920;28;20475;-70
2021/07/20 06:57:37;;;;;;;40.13;37.20;;;19.40;75.80;;;;;;5050744;28;20460;-69
2021/07/20 07:00:07;;;;;;;39.20;36.27;;;19.50;75.60;;;;;;5049763;28;21039;-69
2021/07/20 07:02:34;;;;;;;39.50;36.57;;;19.50;75.40;;;;;;5048128;28;20984;-69
2021/07/20 07:05:07;;;;;;;39.40;36.50;;;19.70;74.80;;;;;;5040752;28;20526;-69
2021/07/20 07:07:35;;;;;;;38.37;35.47;;;19.70;74.40;;;;;;5040443;28;20461;-69
2021/07/20 07:10:04;;;;;;;40.07;36.97;;;19.80;74.10;;;;;;5043923;28;20463;-69
2021/07/20 07:12:32;;;;;;;39.27;35.77;;;19.80;73.60;;;;;;5042848;28;20495;-69
2021/07/20 07:15:03;;;;;;;40.07;36.87;;;19.90;73.80;;;;;;5042339;28;20480;-69
2021/07/20 07:17:30;;;;;;;41.43;38.23;;;19.90;74.00;;;;;;5039471;28;20472;-70
2021/07/20 07:19:58;;;;;;;44.97;41.77;;;20.00;74.00;;;;;;5045465;28;20463;-70
2021/07/20 07:22:26;;;;;;;38.77;35.80;;;20.20;73.10;;;;;;5045170;28;20485;-71
2021/07/20 07:24:54;;;;;;;40.13;37.13;;;20.40;72.50;;;;;;5047551;28;20574;-71
2021/07/20 07:27:23;;;;;;;39.27;36.27;;;20.50;72.10;;;;;;5039805;28;20550;-71
2021/07/20 07:29:52;;;;;;;40.03;37.03;;;20.70;72.10;;;;;;5045246;28;20830;-71
2021/07/20 07:32:21;;;;;;;38.80;35.80;;;20.80;71.00;;;;;;5049341;28;20853;-71
2021/07/20 07:34:49;;;;;;;38.40;35.77;;;20.90;70.90;;;;;;5043757;28;20479;-71
2021/07/20 07:37:19;;;;;;;40.10;37.30;;;21.00;70.50;;;;;;5041066;28;20514;-71
2021/07/20 07:39:48;;;;;;;37.30;34.63;;;21.10;70.10;;;;;;5045998;28;20520;-71
2021/07/20 07:42:15;;;;;;;40.53;37.10;;;21.20;69.70;;;;;;5036841;28;21014;-72
2021/07/20 07:44:46;;;;;;;37.90;34.97;;;21.30;69.60;;;;;;5045329;28;20454;-72
2021/07/20 07:47:14;;;;;;;40.77;37.47;;;21.50;68.90;;;;;;5046050;28;20893;-72
2021/07/20 07:49:44;;;;;;;42.37;38.83;;;21.60;69.00;;;;;;5037763;28;21023;-72
2021/07/20 07:52:13;;;;;;;39.50;36.43;;;21.60;69.20;;;;;;5045139;28;20524;-72
2021/07/20 07:54:40;;;;;;;37.73;34.90;;;21.70;69.30;;;;;;5045283;28;21029;-72
2021/07/20 07:57:07;;;;;;;38.60;35.03;;;21.90;67.80;;;;;;5044157;28;20546;-73
2021/07/20 07:59:38;;;;;;;40.90;37.63;;;21.80;68.20;;;;;;5044542;28;20467;-72
2021/07/20 08:02:07;;;;;;;37.73;34.90;;;21.90;68.30;;;;;;5041985;28;20463;-72
2021/07/20 08:04:39;;;;;;;37.40;34.63;;;22.00;67.60;;;;;;5043701;28;20932;-72
2021/07/20 08:07:07;;;;;;;38.93;35.93;;;21.90;67.40;;;;;;5047882;28;20475;-70
2021/07/20 08:09:35;;;;;;;37.13;34.60;;;21.80;67.50;;;;;;5046059;28;20471;-70
2021/07/20 08:12:04;;;;;;;40.13;37.17;;;21.90;66.90;;;;;;5046080;28;20550;-73
2021/07/20 08:14:31;;;;;;;37.53;34.93;;;21.80;67.50;;;;;;5044768;28;20479;-72
2021/07/20 08:17:01;;;;;;;40.73;37.60;;;21.70;66.70;;;;;;5048007;28;20493;-73
2021/07/20 08:19:31;;;;;;;40.27;37.17;;;21.50;68.10;;;;;;5046960;28;20463;-70
2021/07/20 08:22:00;;;;;;;39.40;36.40;;;21.50;68.30;;;;;;5042386;28;20558;-70
2021/07/20 08:24:30;;;;;;;38.80;35.47;;;21.50;67.90;;;;;;5033094;28;20924;-70
2021/07/20 08:27:02;;;;;;;38.50;35.27;;;21.60;68.50;;;;;;5037684;28;20518;-70
2021/07/20 08:29:35;;;;;;;41.87;38.50;;;21.50;67.70;;;;;;5040587;28;20946;-71
2021/07/20 08:32:07;;;;;;;39.30;36.30;;;21.70;67.90;;;;;;5041336;28;20455;-71
2021/07/20 08:34:37;;;;;;;38.23;35.27;;;21.80;66.50;;;;;;5045296;28;20479;-71
2021/07/20 08:37:04;;;;;;;39.10;36.13;;;21.70;66.90;;;;;;5038939;28;20845;-71
2021/07/20 08:39:34;;;;;;;39.67;36.73;;;21.60;67.10;;;;;;5042016;28;20464;-71
2021/07/20 08:42:13;;;;;;;36.53;33.90;;;21.70;66.10;;;;;;5040683;28;20455;-71
2021/07/20 08:44:58;;;;;;;35.20;32.63;;;21.70;66.00;;;;;;5043022;28;20459;-72
2021/07/20 08:47:39;;;;;;;40.70;37.40;;;21.80;63.90;;;;;;5046197;28;20473;-71
2021/07/20 08:50:25;;;;;;;36.57;33.77;;;21.80;65.60;;;;;;5038363;28;20459;-73
2021/07/20 08:53:04;;;;;;;38.77;35.77;;;21.90;65.30;;;;;;5035883;28;20463;-72
2021/07/20 08:55:38;;;;;;;37.40;34.80;;;21.80;66.00;;;;;;5040271;28;20490;-72
2021/07/20 08:58:11;;;;;;;38.17;35.37;;;21.90;65.90;;;;;;5042343;28;20465;-72
2021/07/20 09:00:40;;;;;;;40.00;37.30;;;22.00;65.00;;;;;;5045512;28;20454;-72
2021/07/20 09:03:18;;;;;;;39.30;36.50;;;22.20;64.90;;;;;;5029698;28;20455;-72
2021/07/20 09:05:50;;;;;;;39.30;36.50;;;22.30;63.60;;;;;;5041759;28;20475;-72
2021/07/20 09:08:21;;;;;;;39.10;35.90;;;22.40;64.20;;;;;;5035782;28;20455;-72
2021/07/20 09:10:54;;;;;;;39.87;36.73;;;22.50;64.60;;;;;;5045751;28;20459;-71
2021/07/20 09:13:30;;;;;;;38.77;36.10;;;22.70;63.80;;;;;;5046253;28;20467;-70
2021/07/20 09:16:10;;;;;;;43.10;40.20;;;22.40;63.20;;;;;;5039704;28;20483;-71
2021/07/20 09:18:45;;;;;;;37.87;35.17;;;22.10;64.70;;;;;;5045781;28;20458;-72
2021/07/20 09:21:14;;;;;;;41.37;38.20;;;22.20;64.70;;;;;;5047413;28;20461;-72
2021/07/20 09:23:49;;;;;;;39.70;36.80;;;22.40;63.60;;;;;;5046063;28;20833;-74
2021/07/20 09:26:22;;;;;;;39.83;36.60;;;22.40;63.40;;;;;;5040598;28;20590;-72
2021/07/20 09:28:53;;;;;;;36.63;34.00;;;22.30;64.00;;;;;;5031040;28;20456;-72
2021/07/20 09:31:30;;;;;;;40.60;37.30;;;22.50;63.50;;;;;;5043685;28;20469;-73
2021/07/20 09:34:08;;;;;;;39.87;37.07;;;22.60;63.40;;;;;;5043037;28;20477;-72
2021/07/20 09:36:42;;;;;;;40.70;37.90;;;22.70;63.50;;;;;;5044040;28;20474;-72
2021/07/20 09:39:48;;;;;;;38.30;35.60;;;23.00;62.80;;;;;;5041586;28;20485;-72
2021/07/20 09:42:30;;;;;;;39.33;36.43;;;22.80;63.20;;;;;;5044704;28;20469;-72
2021/07/20 09:45:04;;;;;;;43.47;40.27;;;22.90;62.80;;;;;;5040692;28;20462;-72
2021/07/20 09:47:54;;;;;;;43.10;40.00;;;22.90;62.80;;;;;;5041332;28;20451;-72
2021/07/20 09:50:22;;;;;;;41.57;38.43;;;23.00;62.60;;;;;;5038025;28;20458;-72
2021/07/20 09:53:38;;;;;;;40.50;37.60;;;23.10;62.80;;;;;;5044037;28;20458;-72
2021/07/20 09:56:30;;;;;;;41.87;38.83;;;22.80;63.10;;;;;;4977466;28;20496;-72
2021/07/20 09:59:10;;;;;;;39.33;36.53;;;22.60;63.40;;;;;;5033513;28;20668;-72
2021/07/20 10:01:40;;;;;;;42.17;39.17;;;22.30;63.70;;;;;;5037972;28;20964;-72
2021/07/20 10:04:14;;;;;;;44.30;41.10;;;22.60;63.50;;;;;;5043897;28;20931;-72
2021/07/20 10:06:46;;;;;;;40.80;37.67;;;22.90;63.30;;;;;;5041873;28;20481;-73
2021/07/20 10:09:19;;;;;;;40.53;37.40;;;22.70;63.20;;;;;;5039115;28;20470;-72
2021/07/20 10:11:51;;;;;;;40.63;37.63;;;22.70;63.50;;;;;;5042971;28;20455;-73
2021/07/20 10:14:48;;;;;;;42.60;39.33;;;23.00;62.40;;;;;;5040045;28;20459;-74
2021/07/20 10:17:21;;;;;;;44.63;41.07;;;23.30;61.70;;;;;;5037501;28;20458;-73
2021/07/20 10:19:52;;;;;;;40.40;37.37;;;23.50;60.70;;;;;;5041415;28;20451;-73
2021/07/20 10:22:25;;;;;;;45.50;41.70;;;23.30;61.30;;;;;;5043938;28;20468;-73
2021/07/20 10:24:59;;;;;;;45.60;42.40;;;23.20;61.80;;;;;;5047045;28;20445;-74
2021/07/20 10:27:34;;;;;;;42.30;39.20;;;23.50;61.40;;;;;;5051393;28;20458;-73
2021/07/20 10:30:08;;;;;;;40.53;37.60;;;23.60;61.20;;;;;;5039788;28;20457;-73
2021/07/20 10:32:46;;;;;;;42.50;39.20;;;23.90;60.50;;;;;;5048025;28;21000;-71
2021/07/20 10:35:20;;;;;;;45.27;42.10;;;24.00;60.20;;;;;;5048036;28;20483;-73
2021/07/20 10:37:50;;;;;;;45.93;42.13;;;24.10;60.30;;;;;;5050057;28;20455;-74
2021/07/20 10:40:20;;;;;;;40.47;37.33;;;23.90;59.70;;;;;;5049024;28;20461;-73
2021/07/20 10:42:55;;;;;;;43.20;40.20;;;23.80;60.40;;;;;;5048872;28;20466;-73
2021/07/20 10:45:24;;;;;;;43.00;39.90;;;23.90;60.00;;;;;;5047393;28;20482;-72
2021/07/20 10:47:57;;;;;;;42.10;39.00;;;24.10;60.00;;;;;;5048933;28;20513;-73
2021/07/20 10:50:28;;;;;;;39.87;36.87;;;23.90;59.70;;;;;;5046163;28;20469;-72
2021/07/20 10:53:17;;;;;;;41.47;38.57;;;23.90;59.90;;;;;;5035738;28;20455;-70
2021/07/20 10:55:54;;;;;;;40.77;37.70;;;23.90;59.70;;;;;;5050001;28;20498;-72
2021/07/20 10:58:32;;;;;;;40.63;37.70;;;23.80;59.90;;;;;;5040037;28;20459;-73
2021/07/20 11:01:06;;;;;;;42.93;39.93;;;23.90;60.40;;;;;;5050315;28;20500;-72
2021/07/20 11:03:41;;;;;;;43.90;40.70;;;24.30;60.40;;;;;;5050227;28;20451;-73
2021/07/20 11:06:10;;;;;;;42.20;39.00;;;24.50;59.50;;;;;;5046969;28;20481;-71
2021/07/20 11:08:43;;;;;;;44.10;40.50;;;24.40;58.90;;;;;;5039047;28;20456;-71
2021/07/20 11:11:14;;;;;;;42.33;39.13;;;24.30;58.60;;;;;;5048826;28;20455;-71
2021/07/20 11:13:42;;;;;;;42.17;38.97;;;23.90;59.80;;;;;;5040515;28;20466;-71
2021/07/20 11:16:11;;;;;;;41.10;38.10;;;23.50;60.40;;;;;;5044152;28;20845;-72
2021/07/20 11:18:41;;;;;;;44.00;40.20;;;23.60;60.50;;;;;;5049557;28;20450;-72
2021/07/20 11:21:11;;;;;;;44.20;41.00;;;23.60;60.60;;;;;;5047911;28;20469;-71
2021/07/20 11:23:41;;;;;;;40.13;37.00;;;23.60;60.80;;;;;;5045021;28;20464;-71
2021/07/20 11:26:09;;;;;;;46.10;42.27;;;24.00;59.00;;;;;;5046807;28;20485;-71
2021/07/20 11:28:37;;;;;;;43.50;40.20;;;24.40;58.40;;;;;;5047485;28;20486;-72
2021/07/20 11:31:08;;;;;;;44.60;41.40;;;24.60;58.10;;;;;;5045819;28;20462;-71
2021/07/20 11:33:40;;;;;;;42.67;39.63;;;24.80;58.50;;;;;;5041387;28;20470;-71
2021/07/20 11:36:09;;;;;;;41.87;38.80;;;25.10;57.10;;;;;;5050069;28;20569;-72
2021/07/20 11:38:38;;;;;;;45.37;42.07;;;25.20;56.80;;;;;;5049824;28;20470;-71
2021/07/20 11:41:13;;;;;;;43.67;40.33;;;25.30;56.10;;;;;;5044003;28;20472;-71
2021/07/20 11:43:54;;;;;;;44.97;41.67;;;24.70;57.50;;;;;;5039384;28;20465;-72
2021/07/20 11:46:25;;;;;;;46.00;43.00;;;24.20;58.70;;;;;;5046960;28;20478;-73
2021/07/20 11:48:56;;;;;;;43.20;40.10;;;24.00;58.50;;;;;;5043505;28;20852;-70
2021/07/20 11:51:28;;;;;;;42.80;39.80;;;24.00;58.80;;;;;;5045275;28;20502;-71
2021/07/20 11:54:01;;;;;;;41.00;37.97;;;23.90;58.40;;;;;;5047938;28;20557;-72
2021/07/20 11:56:31;;;;;;;41.50;38.60;;;23.70;57.70;;;;;;5049136;28;20562;-71
2021/07/20 11:59:39;;;;;;;43.10;40.00;;;23.80;57.90;;;;;;5050217;28;20459;-72
2021/07/20 12:02:40;;;;;;;41.17;38.07;;;24.10;57.20;;;;;;5044833;28;20443;-71
2021/07/20 12:05:27;;;;;;;41.87;38.67;;;24.50;56.80;;;;;;5022807;28;20478;-72
2021/07/20 12:08:00;;;;;;;43.83;40.63;;;24.80;55.00;;;;;;5049789;28;20520;-71
2021/07/20 12:10:38;;;;;;;40.20;37.53;;;24.90;54.80;;;;;;5049327;28;20455;-72
2021/07/20 12:13:08;;;;;;;42.37;39.07;;;25.00;54.30;;;;;;5047385;28;20459;-71
2021/07/20 12:15:38;;;;;;;44.20;40.70;;;25.30;54.40;;;;;;5049621;28;20590;-72
2021/07/20 12:18:07;;;;;;;43.03;40.10;;;25.40;53.80;;;;;;5048747;28;20463;-72
2021/07/20 12:20:36;;;;;;;40.70;37.73;;;25.20;54.10;;;;;;5049109;28;20462;-71
2021/07/20 12:23:05;;;;;;;42.93;39.60;;;25.30;53.60;;;;;;5045797;28;20459;-72
2021/07/20 12:25:33;;;;;;;42.77;39.87;;;25.30;54.50;;;;;;5044766;28;20570;-72
2021/07/20 12:28:03;;;;;;;43.57;40.60;;;25.10;53.90;;;;;;5046480;28;20455;-71
2021/07/20 12:30:32;;;;;;;42.03;38.87;;;25.10;53.30;;;;;;5043902;28;20451;-71
2021/07/20 12:33:02;;;;;;;43.13;40.00;;;25.00;53.10;;;;;;5042809;28;20467;-73
2021/07/20 12:35:29;;;;;;;44.87;41.57;;;24.70;53.60;;;;;;5047305;28;20475;-72
2021/07/20 12:38:06;;;;;;;40.37;37.47;;;24.60;54.40;;;;;;5043361;28;20464;-73
2021/07/20 12:40:34;;;;;;;41.93;39.07;;;24.80;54.80;;;;;;5046521;28;20490;-72
2021/07/20 12:43:09;;;;;;;41.47;38.30;;;25.10;54.50;;;;;;5043062;28;20463;-72
2021/07/20 12:45:40;;;;;;;42.53;39.40;;;24.90;54.00;;;;;;5043969;28;20481;-72
2021/07/20 12:48:20;;;;;;;41.37;38.40;;;24.60;53.50;;;;;;5046178;28;20458;-72